Topeka, KS (66614)

12:01 PM CST on February 14, 2016 (GMT -0600)
Westport Neighborhood | | Change Station
CLOSE
Current Station
Personal Weather Station
Location: Topeka, KS
Elevation: 1010 ft
Nearby Weather Stations

Elev 1010 ft 39.02 °N, 95.75 °W | Updated 10 minutes ago

Clear
Clear
47.3 °F
Feels Like 46 °F
N
3.7
Wind Variable Wind from SW

Today
High -- | Low -- °F
--% Chance of Precip.
Yesterday
High -- | Low -- °F
Precip. -- in
Pressure 29.94 in
Visibility 10.0 miles
Clouds Clear
Windchill 46 °F
Dew Point 24 °F
Humidity 40%
Rainfall 0.00 in
Snow Depth Not available.
7:16 AM 5:58 PM
Waxing Crescent, 44% visible
METAR KFOE 141753Z 21006KT 10SM CLR 06/M05 A2992 RMK AO2 SLP139 T00611050 10061 21072 56017
Pressure 29.94 in
Visibility 10.0 miles
Clouds Clear
Windchill 46 °F
Dew Point 24 °F
Humidity 40%
Rainfall 0.00 in
Snow Depth Not available.
7:16 AM 5:58 PM
Waxing Crescent, 44% visible
METAR KFOE 141753Z 21006KT 10SM CLR 06/M05 A2992 RMK AO2 SLP139 T00611050 10061 21072 56017

10-Day Weather Forecast

Almanac

Astronomy

Feb. 14, 2016 Rise Set
Actual Time
Civil Twilight
Nautical Twilight
Astronomical Twilight
Moon
Length of Visible Light
Length of Day
Tomorrow will be .
, % of the Moon is Illuminated

Today's Extremes

State Highs State Lows

Community

WunderPhotos

Upload Photos

1,892,866 photos uploaded!

WunderBlog® & News

Nearby

Air Quality

  Air Quality AQ Index Pollutant
Not available.

Snow Depth

Station Depth Elevation

Earthquake Activity

City Distance Mag. Time & Date
Minimum magnitude displayed is 2.5.

Coastal Water Temperatures

Place Temperature

Stations

Nearby Weather Stations

Station Location Temp. Windchill Dew Point Humidity Wind Precip. Elev Updated Type
                   

Watches & Warnings

There are currently no watches in effect.